MSC Cordoba — A8OF8 — position and weather

sailwx.info

Track history (hours):
 
Tides and Currents Weather Stations Pressure Air Temp Water Temp Dewpoint Dewpoint Depression Visibility Wind Speed Wind Dir Waves Ship Positions

MSC Cordoba

Last reported at 2016-Jun-26 05:27 UTC. Time now 2016-Jun-26 06:34 UTC.
Position N 36°54' E 002°04'.

Length 274 m; draft 12.1 m.

Type: Ship (hazmat cat A). MMSI: 636091473.

Date/timePositionNaut miles runAvg speedWind from/ knotsBaromVisibWave heightAir tempDewpointWater temp
2016-Jun-26 05:27N 36°54' E 002°04'4218.6
2016-Jun-26 03:11N 36°60' E 002°56'1519.5
2016-Jun-26 02:25N 37°02' E 003°15'1820.9
2016-Jun-26 01:33N 37°05' E 003°37'2520.2
2016-Jun-26 00:18N 37°08' E 004°09'1720.2
2016-Jun-25 23:27N 37°10' E 004°30'1920.1
2016-Jun-25 22:31N 37°12' E 004°53'4319.9
2016-Jun-25 20:22N 37°18' E 005°47'15419.4
2016-Jun-25 12:26N 37°38' E 008°59'15019.1
2016-Jun-25 04:33N 37°08' E 012°04'1918.8
2016-Jun-25 03:33N 37°02' E 012°26'1918.9
2016-Jun-25 02:33N 36°56' E 012°49'1918.7
2016-Jun-25 01:33N 36°50' E 013°11'1818.1
2016-Jun-25 00:33N 36°45' E 013°33'1818.3
2016-Jun-24 23:33N 36°40' E 013°55'1918.9
2016-Jun-24 22:33N 36°33' E 014°17'1919.4
2016-Jun-24 21:33N 36°27' E 014°40'47817.1
2016-Jun-23 17:33N 37°42' E 024°32'26814.9
2016-Jun-22 23:32N 40°26' E 029°04'2 0.1
2016-Jun-21 21:33N 40°26' E 029°02'21 9.6
2016-Jun-21 19:24N 40°40' E 028°42'1214.8
2016-Jun-21 18:33N 40°52' E 028°41'4 0.2
2016-Jun-20 23:14N 40°56' E 028°40'4 2.2
2016-Jun-20 21:33N 40°53' E 028°42'11 8.2
2016-Jun-20 20:09N 40°43' E 028°51'914.2
2016-Jun-20 19:33N 40°44' E 029°02'1413.9
2016-Jun-20 18:33N 40°44' E 029°20'9 8.9
2016-Jun-20 17:31N 40°46' E 029°32'0 0.3
2016-Jun-20 16:31N 40°46' E 029°32'0 0.0
2016-Jun-20 15:30N 40°46' E 029°32'0 0.0
2016-Jun-20 14:30N 40°46' E 029°32'0 0.0
2016-Jun-20 13:12N 40°46' E 029°32'0 0.0
2016-Jun-20 12:29N 40°46' E 029°32'0 0.0
2016-Jun-20 11:17N 40°46' E 029°32'0 0.0
2016-Jun-20 10:28N 40°46' E 029°32'0 0.0
2016-Jun-20 08:34N 40°46' E 029°32'0 0.1
2016-Jun-20 07:33N 40°46' E 029°32'168 6.1
2016-Jun-19 04:10N 39°58' E 026°01'1015.0
2016-Jun-19 03:31N 39°52' E 025°51'7817.7
2016-Jun-18 23:05N 38°43' E 025°03'1819.3
2016-Jun-18 22:08N 38°26' E 024°53'3218.9
2016-Jun-18 20:25N 37°57' E 024°37'1718.8
2016-Jun-18 19:30N 37°40' E 024°31'1918.6
2016-Jun-18 18:30N 37°26' E 024°16'2419.4
2016-Jun-18 17:16N 37°08' E 023°57'1419.2
2016-Jun-18 16:33N 36°57' E 023°46'2119.5
2016-Jun-18 15:28N 36°41' E 023°29'40219.8
2016-Jun-17 19:09N 36°26' E 015°08'1420.0
2016-Jun-17 18:27N 36°27' E 014°51'1226.7
2016-Jun-17 18:00N 36°24' E 014°36'717.2 100 / 241013.610.8 2.524.319.421.0
2016-Jun-17 17:33N 36°29' E 014°29'2019.5
2016-Jun-17 16:33N 36°36' E 014°06'2019.6
2016-Jun-17 15:33N 36°42' E 013°43'2020.1
2016-Jun-17 14:34N 36°48' E 013°19'40419.7
2016-Jun-16 18:00N 37°12' E 004°54'   310 / 211012.2 5.4 0.521.116.922.0
Track history (hours):
 
Tides and Currents Weather Stations Pressure Air Temp Water Temp Dewpoint Dewpoint Depression Visibility Wind Speed Wind Dir Waves Ship Positions

MSC Cordoba

Last reported at 2016-Jun-26 05:27 UTC. Time now 2016-Jun-26 06:34 UTC.
Position N 36°54' E 002°04'.

Length 274 m; draft 12.1 m.

Type: Ship (hazmat cat A). MMSI: 636091473.

Date/timePositionNaut miles runAvg speedWind from/ knotsBaromVisibWave heightAir tempDewpointWater temp
2016-Jun-26 05:27N 36°54' E 002°04'4218.6
2016-Jun-26 03:11N 36°60' E 002°56'1519.5
2016-Jun-26 02:25N 37°02' E 003°15'1820.9
2016-Jun-26 01:33N 37°05' E 003°37'2520.2
2016-Jun-26 00:18N 37°08' E 004°09'1720.2
2016-Jun-25 23:27N 37°10' E 004°30'1920.1
2016-Jun-25 22:31N 37°12' E 004°53'4319.9
2016-Jun-25 20:22N 37°18' E 005°47'15419.4
2016-Jun-25 12:26N 37°38' E 008°59'15019.1
2016-Jun-25 04:33N 37°08' E 012°04'1918.8
2016-Jun-25 03:33N 37°02' E 012°26'1918.9
2016-Jun-25 02:33N 36°56' E 012°49'1918.7
2016-Jun-25 01:33N 36°50' E 013°11'1818.1
2016-Jun-25 00:33N 36°45' E 013°33'1818.3
2016-Jun-24 23:33N 36°40' E 013°55'1918.9
2016-Jun-24 22:33N 36°33' E 014°17'1919.4
2016-Jun-24 21:33N 36°27' E 014°40'47817.1
2016-Jun-23 17:33N 37°42' E 024°32'26814.9
2016-Jun-22 23:32N 40°26' E 029°04'2 0.1
2016-Jun-21 21:33N 40°26' E 029°02'21 9.6
2016-Jun-21 19:24N 40°40' E 028°42'1214.8
2016-Jun-21 18:33N 40°52' E 028°41'4 0.2
2016-Jun-20 23:14N 40°56' E 028°40'4 2.2
2016-Jun-20 21:33N 40°53' E 028°42'11 8.2
2016-Jun-20 20:09N 40°43' E 028°51'914.2
2016-Jun-20 19:33N 40°44' E 029°02'1413.9
2016-Jun-20 18:33N 40°44' E 029°20'9 8.9
2016-Jun-20 17:31N 40°46' E 029°32'0 0.3
2016-Jun-20 16:31N 40°46' E 029°32'0 0.0
2016-Jun-20 15:30N 40°46' E 029°32'0 0.0
2016-Jun-20 14:30N 40°46' E 029°32'0 0.0
2016-Jun-20 13:12N 40°46' E 029°32'0 0.0
2016-Jun-20 12:29N 40°46' E 029°32'0 0.0
2016-Jun-20 11:17N 40°46' E 029°32'0 0.0
2016-Jun-20 10:28N 40°46' E 029°32'0 0.0
2016-Jun-20 08:34N 40°46' E 029°32'0 0.1
2016-Jun-20 07:33N 40°46' E 029°32'168 6.1
2016-Jun-19 04:10N 39°58' E 026°01'1015.0
2016-Jun-19 03:31N 39°52' E 025°51'7817.7
2016-Jun-18 23:05N 38°43' E 025°03'1819.3
2016-Jun-18 22:08N 38°26' E 024°53'3218.9
2016-Jun-18 20:25N 37°57' E 024°37'1718.8
2016-Jun-18 19:30N 37°40' E 024°31'1918.6
2016-Jun-18 18:30N 37°26' E 024°16'2419.4
2016-Jun-18 17:16N 37°08' E 023°57'1419.2
2016-Jun-18 16:33N 36°57' E 023°46'2119.5
2016-Jun-18 15:28N 36°41' E 023°29'40219.8
2016-Jun-17 19:09N 36°26' E 015°08'1420.0
2016-Jun-17 18:27N 36°27' E 014°51'1226.7
2016-Jun-17 18:00N 36°24' E 014°36'717.2 100 / 241013.610.8 2.524.319.421.0
2016-Jun-17 17:33N 36°29' E 014°29'2019.5
2016-Jun-17 16:33N 36°36' E 014°06'2019.6
2016-Jun-17 15:33N 36°42' E 013°43'2020.1
2016-Jun-17 14:34N 36°48' E 013°19'40419.7
2016-Jun-16 18:00N 37°12' E 004°54'   310 / 211012.2 5.4 0.521.116.922.0

Dump ship's entire track history